createdAt,value
2023-05-08T00:01:48.463Z,86.93
2023-05-08T00:04:35.945Z,86.43
2023-05-08T00:07:25.964Z,75.82
2023-05-08T00:10:13.420Z,88.80
2023-05-08T00:13:00.867Z,89.18
2023-05-08T00:15:48.071Z,266.40
2023-05-08T00:18:37.583Z,113.38
2023-05-08T00:21:24.835Z,128.85
2023-05-08T00:24:12.355Z,399.13
2023-05-08T00:26:59.494Z,69.35
2023-05-08T00:29:50.308Z,82.95
2023-05-08T00:32:37.515Z,77.13
2023-05-08T00:35:27.215Z,82.05
2023-05-08T00:38:14.427Z,96.07
2023-05-08T00:41:02.148Z,87.68
2023-05-08T00:43:49.381Z,93.25
2023-05-08T00:46:37.142Z,78.80
2023-05-08T00:49:25.197Z,73.88
2023-05-08T00:52:14.788Z,87.97
2023-05-08T00:55:04.928Z,102.38
2023-05-08T00:57:52.835Z,100.03
2023-05-08T01:00:44.316Z,95.32
2023-05-08T01:03:34.782Z,92.85
2023-05-08T01:06:22.135Z,89.00
2023-05-08T01:09:14.265Z,100.20
2023-05-08T01:12:29.416Z,99.63
2023-05-08T01:15:28.632Z,106.57
2023-05-08T01:18:23.010Z,116.38
2023-05-08T01:21:25.128Z,102.93
2023-05-08T01:24:22.777Z,101.53
2023-05-08T01:27:15.602Z,113.05
2023-05-08T01:30:12.328Z,104.03
2023-05-08T01:33:09.891Z,109.68
2023-05-08T01:36:06.666Z,92.78
2023-05-08T01:38:53.839Z,94.35
2023-05-08T01:41:46.650Z,111.60
2023-05-08T01:44:41.574Z,116.85
2023-05-08T01:47:32.976Z,117.88
2023-05-08T01:50:30.970Z,109.50
2023-05-08T01:53:37.143Z,108.32
2023-05-08T01:56:30.093Z,100.50
2023-05-08T01:59:22.025Z,98.45
2023-05-08T02:02:14.096Z,92.70
2023-05-08T02:05:05.306Z,93.22
2023-05-08T02:07:52.956Z,108.25
2023-05-08T02:10:41.725Z,93.25
2023-05-08T02:13:32.132Z,99.22
2023-05-08T02:16:22.791Z,116.40
2023-05-08T02:19:11.900Z,86.10
2023-05-08T02:22:00.716Z,94.30
2023-05-08T02:24:48.648Z,106.97
2023-05-08T02:27:39.745Z,101.43
2023-05-08T02:30:27.660Z,112.88
2023-05-08T02:33:15.630Z,93.78
2023-05-08T02:36:04.760Z,97.95
2023-05-08T02:38:54.651Z,83.93
2023-05-08T02:41:42.566Z,82.03
2023-05-08T02:44:30.202Z,84.45
2023-05-08T02:47:31.117Z,93.70
2023-05-08T02:50:35.146Z,89.10
2023-05-08T02:53:38.997Z,83.55
2023-05-08T02:56:35.839Z,89.20
2023-05-08T02:59:29.308Z,80.85
2023-05-08T03:02:25.762Z,88.72
2023-05-08T03:05:43.489Z,99.90
2023-05-08T03:08:35.458Z,121.72
2023-05-08T03:11:28.477Z,128.85
2023-05-08T03:14:19.769Z,166.48
2023-05-08T03:17:08.783Z,145.88
2023-05-08T03:20:03.123Z,125.13
2023-05-08T03:22:53.382Z,94.18
2023-05-08T03:25:43.402Z,98.20
2023-05-08T03:28:31.893Z,91.22
2023-05-08T03:31:23.283Z,85.63
2023-05-08T03:34:12.945Z,93.30
2023-05-08T03:37:00.264Z,74.53
2023-05-08T03:39:47.642Z,78.72
2023-05-08T03:42:35.680Z,97.55
2023-05-08T03:45:27.238Z,119.10
2023-05-08T03:48:15.512Z,300.60
2023-05-08T03:51:04.470Z,156.73
2023-05-08T03:53:51.701Z,134.73
2023-05-08T03:56:38.900Z,138.07
2023-05-08T03:59:32.147Z,136.90
2023-05-08T04:02:24.423Z,143.45
2023-05-08T04:05:21.835Z,112.60
2023-05-08T04:08:19.757Z,1067.57
2023-05-08T04:11:23.170Z,676.70
2023-05-08T04:14:16.404Z,396.42
2023-05-08T04:17:09.273Z,236.45
2023-05-08T04:20:02.543Z,506.98
2023-05-08T04:22:53.373Z,379.60
2023-05-08T04:25:42.840Z,175.18
2023-05-08T04:28:33.438Z,80.63
2023-05-08T04:31:23.313Z,136.95
2023-05-08T04:34:10.756Z,162.30
2023-05-08T04:36:57.965Z,444.85
2023-05-08T04:39:47.502Z,265.80
2023-05-08T04:42:38.721Z,163.23
2023-05-08T04:45:25.978Z,123.35
2023-05-08T04:48:13.390Z,109.38
2023-05-08T04:51:01.019Z,93.70
2023-05-08T04:53:48.143Z,152.48
2023-05-08T04:56:36.132Z,232.63
2023-05-08T04:59:25.073Z,315.00
2023-05-08T05:02:15.326Z,315.88
2023-05-08T05:05:04.844Z,177.77
2023-05-08T05:07:52.113Z,178.98
2023-05-08T05:10:41.926Z,274.38
2023-05-08T05:13:29.385Z,140.68
2023-05-08T05:16:17.252Z,178.77
2023-05-08T05:19:04.977Z,165.93
2023-05-08T05:21:54.731Z,162.40
2023-05-08T05:24:42.328Z,173.77
2023-05-08T05:27:29.814Z,175.55
2023-05-08T05:30:17.259Z,155.55
2023-05-08T05:33:04.707Z,189.80
2023-05-08T05:35:51.973Z,187.15
2023-05-08T05:38:41.788Z,157.98
2023-05-08T05:41:29.691Z,161.13
2023-05-08T05:44:19.195Z,184.55
2023-05-08T05:47:17.003Z,148.38
2023-05-08T05:50:31.847Z,136.05
2023-05-08T05:53:19.067Z,175.90
2023-05-08T05:56:06.773Z,152.98
2023-05-08T06:01:31.696Z,132.73
2023-05-08T06:04:20.277Z,161.55
2023-05-08T06:07:08.865Z,188.52
2023-05-08T06:10:32.873Z,154.05
2023-05-08T06:13:43.394Z,149.65
2023-05-08T06:16:36.975Z,148.20
2023-05-08T06:42:40.677Z,161.75
2023-05-08T06:45:52.923Z,154.40
2023-05-08T06:58:17.546Z,149.10
2023-05-08T07:01:07.074Z,131.50
2023-05-08T07:04:10.553Z,122.53
2023-05-08T07:06:59.938Z,117.72
2023-05-08T07:09:57.175Z,114.85
2023-05-08T07:13:04.039Z,114.53
2023-05-08T07:16:21.348Z,114.03
2023-05-08T07:19:22.561Z,93.88
2023-05-08T07:22:13.454Z,88.75
2023-05-08T07:25:05.103Z,76.95
2023-05-08T07:27:59.252Z,66.50
2023-05-08T07:31:54.118Z,61.63
2023-05-08T07:34:15.610Z,51.50
2023-05-08T07:37:04.350Z,40.13
2023-05-08T07:39:57.828Z,36.40
2023-05-08T07:43:17.239Z,30.58
2023-05-08T07:46:15.287Z,31.67
2023-05-08T07:52:22.873Z,30.88
2023-05-08T07:58:40.044Z,31.77
2023-05-08T08:01:33.553Z,29.17
2023-05-08T08:04:52.141Z,24.10
2023-05-08T08:07:47.376Z,22.13
2023-05-08T08:10:40.859Z,23.70
2023-05-08T08:13:29.361Z,23.98
2023-05-08T08:16:45.893Z,28.70
2023-05-08T08:19:33.465Z,22.60
2023-05-08T08:22:25.613Z,22.65
2023-05-08T08:25:13.618Z,24.08
2023-05-08T08:28:01.640Z,27.10
2023-05-08T08:30:49.489Z,24.20
2023-05-08T08:33:38.985Z,27.35
2023-05-08T08:36:28.620Z,27.23
2023-05-08T08:39:24.371Z,29.90
2023-05-08T08:42:17.371Z,25.60
2023-05-08T08:45:07.683Z,32.22
2023-05-08T08:48:03.976Z,33.42
2023-05-08T08:51:02.975Z,35.10
2023-05-08T08:54:06.050Z,37.53
2023-05-08T08:57:01.198Z,37.30
2023-05-08T08:59:50.351Z,41.65
2023-05-08T09:02:39.697Z,44.58
2023-05-08T09:05:30.023Z,39.33
2023-05-08T09:08:23.072Z,38.92
2023-05-08T09:11:11.716Z,50.97
2023-05-08T09:14:07.458Z,41.85
2023-05-08T09:17:00.384Z,44.30
2023-05-08T09:19:54.172Z,42.70
2023-05-08T09:23:05.819Z,44.67
2023-05-08T09:26:27.783Z,47.25
2023-05-08T09:29:17.800Z,47.03
2023-05-08T09:33:16.771Z,49.78
2023-05-08T09:36:34.114Z,50.38
2023-05-08T09:39:32.085Z,49.97
2023-05-08T09:42:19.927Z,45.15
2023-05-08T09:45:20.854Z,54.67
2023-05-08T09:48:12.896Z,52.10
2023-05-08T09:51:33.706Z,32.25
2023-05-08T09:54:32.331Z,52.88
2023-05-08T09:57:20.239Z,43.22
2023-05-08T10:00:59.479Z,43.90
2023-05-08T10:04:26.285Z,35.72
2023-05-08T10:07:30.670Z,38.58
2023-05-08T10:14:33.333Z,36.00
2023-05-08T10:17:44.437Z,39.13
2023-05-08T10:23:20.073Z,38.38
2023-05-08T10:26:14.298Z,31.42
2023-05-08T10:29:12.353Z,28.25
2023-05-08T10:32:01.142Z,26.10
2023-05-08T10:35:00.818Z,28.77
2023-05-08T10:37:49.619Z,31.08
2023-05-08T10:40:38.754Z,28.65
2023-05-08T10:43:31.066Z,30.17
2023-05-08T10:46:53.876Z,27.42
2023-05-08T10:50:18.794Z,27.20
2023-05-08T10:53:19.220Z,22.83
2023-05-08T10:56:08.770Z,23.27
2023-05-08T10:59:21.432Z,21.95
2023-05-08T11:02:21.110Z,26.00
2023-05-08T11:05:17.760Z,20.73
2023-05-08T11:56:14.399Z,9.07
2023-05-08T11:59:57.764Z,8.50
2023-05-08T12:24:51.918Z,4.78
2023-05-08T12:27:29.423Z,5.80
2023-05-08T12:31:04.583Z,4.05
2023-05-08T12:34:17.604Z,4.80
2023-05-08T12:37:05.415Z,8.40
2023-05-08T12:40:24.369Z,4.53
2023-05-08T12:43:17.321Z,5.82
2023-05-08T12:46:07.249Z,6.07
2023-05-08T12:49:08.314Z,6.07
2023-05-08T12:52:29.820Z,5.55
2023-05-08T12:55:43.223Z,7.80
2023-05-08T13:02:24.818Z,7.63
2023-05-08T13:29:40.220Z,8.52
2023-05-08T13:32:33.767Z,6.78
2023-05-08T13:35:47.661Z,7.85
2023-05-08T13:38:35.943Z,6.35
2023-05-08T13:41:23.784Z,5.60
2023-05-08T13:44:31.768Z,6.32
2023-05-08T13:47:19.566Z,6.07
2023-05-08T13:50:07.593Z,5.93
2023-05-08T13:52:57.966Z,6.72
2023-05-08T13:55:48.050Z,5.18
2023-05-08T13:58:38.533Z,7.43
2023-05-08T14:01:27.980Z,8.48
2023-05-08T14:04:31.208Z,9.55
2023-05-08T14:07:30.861Z,7.40
2023-05-08T14:10:22.071Z,11.15
2023-05-08T14:13:10.400Z,8.43
2023-05-08T14:16:11.847Z,8.50
2023-05-08T14:19:00.239Z,8.30
2023-05-08T14:21:49.824Z,7.70
2023-05-08T14:24:37.406Z,10.30
2023-05-08T14:27:27.425Z,8.35
2023-05-08T14:30:15.359Z,7.57
2023-05-08T14:33:07.941Z,7.72
2023-05-08T14:38:44.955Z,10.10
2023-05-08T14:41:34.960Z,9.48
2023-05-08T14:44:25.512Z,7.78
2023-05-08T14:47:14.909Z,8.93
2023-05-08T14:50:04.675Z,8.80
2023-05-08T14:52:58.690Z,8.98
2023-05-08T14:55:55.422Z,11.45
2023-05-08T14:58:46.216Z,13.02
2023-05-08T15:01:43.230Z,11.85
2023-05-08T15:04:30.995Z,11.27
2023-05-08T15:07:21.662Z,13.23
2023-05-08T15:10:12.006Z,13.90
2023-05-08T15:13:01.729Z,13.60
2023-05-08T15:15:51.717Z,19.40
2023-05-08T15:18:41.498Z,22.08
2023-05-08T15:21:33.788Z,22.13
2023-05-08T15:24:25.814Z,21.58
2023-05-08T15:27:13.128Z,27.05
2023-05-08T15:30:02.874Z,32.72
2023-05-08T15:32:52.856Z,33.15
2023-05-08T15:35:42.801Z,35.15
2023-05-08T15:38:30.194Z,34.28
2023-05-08T15:41:17.475Z,38.00
2023-05-08T15:44:04.922Z,41.85
2023-05-08T15:46:52.403Z,33.47
2023-05-08T15:49:42.275Z,39.42
2023-05-08T15:52:33.313Z,40.30
2023-05-08T15:55:25.383Z,43.10
2023-05-08T15:58:12.609Z,40.40
2023-05-08T16:01:04.823Z,40.42
2023-05-08T16:03:52.135Z,47.22
2023-05-08T16:06:41.791Z,44.88
2023-05-08T16:09:29.138Z,46.42
2023-05-08T16:12:17.837Z,47.28
2023-05-08T16:15:05.878Z,50.60
2023-05-08T16:18:03.357Z,50.97
2023-05-08T16:20:50.899Z,50.65
2023-05-08T16:23:38.479Z,54.08
2023-05-08T16:26:28.254Z,51.25
2023-05-08T16:29:15.731Z,50.97
2023-05-08T16:32:08.687Z,51.35
2023-05-08T16:35:02.688Z,52.63
2023-05-08T16:37:54.704Z,50.53
2023-05-08T16:40:42.116Z,48.92
2023-05-08T16:43:36.613Z,50.63
2023-05-08T16:46:30.031Z,47.55
2023-05-08T16:49:20.536Z,46.08
2023-05-08T16:52:13.172Z,43.88
2023-05-08T16:57:49.608Z,38.70
2023-05-08T17:00:41.508Z,41.20
2023-05-08T17:03:40.344Z,34.13
2023-05-08T17:06:43.288Z,34.28
2023-05-08T17:09:34.848Z,41.13
2023-05-08T17:12:54.315Z,34.77
2023-05-08T17:19:38.576Z,34.45
2023-05-08T17:50:18.683Z,29.30
2023-05-08T17:53:06.008Z,18.20
2023-05-08T17:56:12.078Z,20.35
2023-05-08T17:58:59.427Z,12.32
2023-05-08T18:01:52.333Z,13.63
2023-05-08T18:04:43.067Z,14.30
2023-05-08T18:07:32.978Z,10.40
2023-05-08T18:10:20.419Z,9.63
2023-05-08T18:13:08.091Z,11.02
2023-05-08T18:15:59.834Z,12.65
2023-05-08T18:18:48.100Z,12.90
2023-05-08T18:21:39.397Z,13.73
2023-05-08T18:24:27.410Z,12.90
2023-05-08T18:27:17.450Z,16.10
2023-05-08T18:30:15.324Z,21.42
2023-05-08T18:33:04.755Z,17.80
2023-05-08T18:35:52.641Z,19.77
2023-05-08T18:38:42.377Z,20.15
2023-05-08T18:41:29.908Z,19.65
2023-05-08T18:44:17.476Z,14.90
2023-05-08T18:47:05.741Z,16.67
2023-05-08T18:49:57.927Z,21.00
2023-05-08T18:52:45.814Z,18.02
2023-05-08T18:55:33.453Z,15.93
2023-05-08T18:58:21.084Z,12.45
2023-05-08T19:01:09.357Z,12.82
2023-05-08T19:03:59.180Z,10.93
2023-05-08T19:06:47.138Z,11.23
2023-05-08T19:09:42.036Z,12.43
2023-05-08T19:12:32.191Z,6.60
2023-05-08T19:15:22.128Z,9.43
2023-05-08T19:18:09.729Z,9.05
2023-05-08T19:20:57.188Z,10.88
2023-05-08T19:23:44.661Z,10.77
2023-05-08T19:26:34.241Z,10.35
2023-05-08T19:29:24.522Z,17.40
2023-05-08T19:32:12.354Z,26.08
2023-05-08T19:35:01.190Z,20.75
2023-05-08T19:37:48.752Z,19.90
2023-05-08T19:40:48.021Z,23.75
2023-05-08T19:43:39.847Z,20.40
2023-05-08T19:46:27.353Z,21.15
2023-05-08T19:49:17.757Z,24.13
2023-05-08T19:52:17.664Z,23.23
2023-05-08T19:55:07.742Z,28.70
2023-05-08T19:57:59.860Z,30.08
2023-05-08T20:00:51.813Z,31.70
2023-05-08T20:03:39.761Z,34.97
2023-05-08T20:06:27.357Z,31.30
2023-05-08T20:09:14.905Z,38.05
2023-05-08T20:12:02.515Z,36.17
2023-05-08T20:14:50.081Z,43.50
2023-05-08T20:17:37.561Z,39.97
2023-05-08T20:20:27.256Z,39.80
2023-05-08T20:23:20.660Z,50.58
2023-05-08T20:26:08.784Z,46.53
2023-05-08T20:28:56.905Z,52.75
2023-05-08T20:31:47.527Z,48.95
2023-05-08T20:34:35.183Z,54.15
2023-05-08T20:37:22.715Z,60.63
2023-05-08T20:40:13.581Z,60.15
2023-05-08T20:43:03.387Z,64.32
2023-05-08T20:45:52.922Z,64.40
2023-05-08T20:48:40.363Z,62.95
2023-05-08T20:51:31.923Z,63.25
2023-05-08T20:54:19.130Z,66.22
2023-05-08T20:57:08.790Z,59.58
2023-05-08T20:59:56.084Z,58.28
2023-05-08T21:02:43.951Z,65.70
2023-05-08T21:05:33.411Z,69.88
2023-05-08T21:08:26.588Z,66.68
2023-05-08T21:11:13.848Z,60.90
2023-05-08T21:14:01.180Z,74.32
2023-05-08T21:16:50.188Z,84.18
2023-05-08T21:19:37.743Z,82.82
2023-05-08T21:22:24.955Z,76.65
2023-05-08T21:25:12.566Z,75.32
2023-05-08T21:28:04.437Z,76.72
2023-05-08T21:30:51.531Z,80.32
2023-05-08T21:33:38.729Z,87.40
2023-05-08T21:36:26.356Z,95.68
2023-05-08T21:39:14.906Z,94.68
2023-05-08T21:42:14.587Z,112.60
2023-05-08T21:45:01.947Z,99.55
2023-05-08T21:47:54.091Z,103.00
2023-05-08T21:50:43.547Z,107.60
2023-05-08T21:53:32.843Z,105.88
2023-05-08T21:56:25.006Z,102.28
2023-05-08T21:59:12.302Z,109.57
2023-05-08T22:02:04.385Z,103.03
2023-05-08T22:04:54.907Z,115.03
2023-05-08T22:07:42.311Z,90.30
2023-05-08T22:10:32.052Z,90.05
2023-05-08T22:13:21.943Z,94.78
2023-05-08T22:16:18.973Z,75.47
2023-05-08T22:19:08.628Z,89.22
2023-05-08T22:21:55.800Z,84.25
2023-05-08T22:24:43.016Z,91.53
2023-05-08T22:27:30.182Z,94.88
2023-05-08T22:30:27.322Z,102.68
2023-05-08T22:33:14.612Z,90.65
2023-05-08T22:36:03.878Z,100.68
2023-05-08T22:38:53.619Z,96.22
2023-05-08T22:41:43.538Z,97.53
2023-05-08T22:44:35.479Z,84.53
2023-05-08T22:47:26.051Z,109.53
2023-05-08T22:50:13.998Z,86.25
2023-05-08T22:53:08.384Z,92.53
2023-05-08T22:55:55.905Z,95.07
2023-05-08T22:58:43.188Z,82.07
2023-05-08T23:01:33.666Z,96.93
2023-05-08T23:04:21.774Z,107.13
2023-05-08T23:07:11.177Z,112.88
2023-05-08T23:09:58.410Z,101.20
2023-05-08T23:12:45.632Z,106.93
2023-05-08T23:15:32.944Z,109.88
2023-05-08T23:18:20.151Z,107.03
2023-05-08T23:24:09.704Z,182.90
2023-05-08T23:26:59.354Z,139.73
2023-05-08T23:29:46.715Z,118.38
2023-05-08T23:32:36.199Z,124.82
2023-05-08T23:35:23.413Z,127.38
2023-05-08T23:38:13.166Z,131.68
2023-05-08T23:41:00.524Z,147.75
2023-05-08T23:43:53.713Z,155.43
2023-05-08T23:46:40.988Z,137.65
2023-05-08T23:49:28.216Z,129.05
2023-05-08T23:52:15.679Z,120.03
2023-05-08T23:55:02.989Z,136.60
2023-05-08T23:57:50.206Z,118.43
